Time;durP1;ratioP1;P1;durP2;ratioP2;P2;SDS_P1;SDS_P2;PMS_P1;PMS_P2;Temp;Humidity;BMP_temperature;BMP_pressure;BME280_temperature;BME280_humidity;BME280_pressure;Samples;Min_cycle;Max_cycle;Signal;HPM_P1;HPM_P2
2023/07/17 00:00:42;;;;;;;3.42;1.70;;;;;;;24.82;44.50;101427.41;4969621;28;20046;-73
2023/07/17 00:03:08;;;;;;;4.40;2.10;;;;;;;24.80;44.40;101426.78;4974268;28;20477;-73
2023/07/17 00:05:34;;;;;;;3.60;2.03;;;;;;;24.78;45.02;101437.63;4969585;28;20082;-73
2023/07/17 00:07:59;;;;;;;2.55;1.90;;;;;;;24.75;44.49;101435.34;4970842;28;20049;-73
2023/07/17 00:10:25;;;;;;;4.90;2.10;;;;;;;24.73;44.53;101423.25;4967909;28;20034;-74
2023/07/17 00:12:50;;;;;;;4.70;2.03;;;;;;;24.74;44.64;101430.22;4968980;28;20050;-74
2023/07/17 00:15:16;;;;;;;4.35;2.33;;;;;;;24.71;44.81;101423.44;4969902;28;20042;-74
2023/07/17 00:17:42;;;;;;;3.92;1.85;;;;;;;24.70;44.52;101417.31;4970146;28;20043;-72
2023/07/17 00:20:11;;;;;;;2.10;1.80;;;;;;;24.69;44.87;101418.31;4969581;28;20652;-73
2023/07/17 00:22:37;;;;;;;3.75;1.92;;;;;;;24.68;45.06;101426.50;4969251;28;20039;-74
2023/07/17 00:25:04;;;;;;;3.17;2.70;;;;;;;24.69;44.66;101422.81;4975228;28;20048;-74
2023/07/17 00:27:30;;;;;;;3.33;2.00;;;;;;;24.67;44.84;101420.38;4974790;28;20035;-73
2023/07/17 00:29:56;;;;;;;2.00;1.58;;;;;;;24.63;44.85;101420.97;4969876;28;20062;-73
2023/07/17 00:32:22;;;;;;;3.00;1.90;;;;;;;24.62;44.86;101422.00;4972706;28;20071;-73
2023/07/17 00:34:47;;;;;;;2.95;1.48;;;;;;;24.64;44.93;101422.59;4973193;28;20038;-73
2023/07/17 00:37:14;;;;;;;3.50;1.95;;;;;;;24.58;45.13;101421.53;4972830;28;20069;-74
2023/07/17 00:39:39;;;;;;;3.20;2.10;;;;;;;24.62;45.01;101429.97;4968164;28;20429;-73
2023/07/17 00:42:05;;;;;;;3.60;2.10;;;;;;;24.63;45.12;101447.59;4964841;28;20042;-74
2023/07/17 00:44:31;;;;;;;3.65;1.85;;;;;;;24.60;45.36;101448.81;4985064;28;20516;-74
2023/07/17 00:46:59;;;;;;;4.68;2.20;;;;;;;24.60;45.18;101448.00;4970441;28;20117;-73
2023/07/17 00:49:27;;;;;;;4.70;1.80;;;;;;;24.56;45.24;101444.88;4969149;28;20428;-73
2023/07/17 00:51:55;;;;;;;3.15;2.00;;;;;;;24.56;45.14;101438.72;4982970;28;20077;-72
2023/07/17 00:54:21;;;;;;;5.88;2.25;;;;;;;24.55;45.19;101432.59;4988041;28;20030;-73
2023/07/17 00:56:47;;;;;;;2.40;1.73;;;;;;;24.53;45.38;101428.47;4973009;28;20047;-73
2023/07/17 00:59:14;;;;;;;4.50;2.10;;;;;;;24.51;45.20;101428.69;4972278;28;20038;-72
2023/07/17 01:01:41;;;;;;;2.53;1.90;;;;;;;24.49;45.44;101432.56;4969804;28;20043;-73
2023/07/17 01:04:08;;;;;;;2.65;1.77;;;;;;;24.52;45.14;101450.78;4969158;28;20058;-72
2023/07/17 01:06:38;;;;;;;4.10;2.13;;;;;;;24.48;45.38;101449.56;4972338;28;20027;-70
2023/07/17 01:09:09;;;;;;;4.55;2.35;;;;;;;24.46;45.61;101457.72;4970840;28;21850;-73
2023/07/17 01:11:35;;;;;;;5.18;2.00;;;;;;;24.46;45.61;101449.75;4970231;28;20042;-73
2023/07/17 01:14:00;;;;;;;2.38;1.92;;;;;;;24.46;45.55;101451.59;4972454;28;20038;-73
2023/07/17 01:16:26;;;;;;;3.05;1.92;;;;;;;24.44;45.42;101440.31;4974053;28;20042;-73
2023/07/17 01:18:52;;;;;;;2.65;2.08;;;;;;;24.41;45.48;101439.66;4973923;28;20133;-73
2023/07/17 01:21:25;;;;;;;2.10;1.73;;;;;;;24.37;45.47;101429.59;4973474;28;20133;-73
2023/07/17 01:23:52;;;;;;;2.92;1.80;;;;;;;24.35;45.67;101411.16;4970072;28;20149;-73
2023/07/17 01:26:18;;;;;;;5.82;2.35;;;;;;;24.36;45.65;101412.81;4973025;28;20057;-72
2023/07/17 01:28:45;;;;;;;2.80;1.98;;;;;;;24.35;45.68;101413.84;4972850;28;20090;-72
2023/07/17 01:31:11;;;;;;;4.60;1.83;;;;;;;24.37;45.81;101426.94;4976650;28;20213;-73
2023/07/17 01:33:37;;;;;;;2.33;1.67;;;;;;;24.39;45.60;101427.56;4988338;28;20042;-73
2023/07/17 01:36:04;;;;;;;2.83;1.80;;;;;;;24.36;45.77;101428.78;4985498;28;20035;-73
2023/07/17 01:38:30;;;;;;;3.40;1.90;;;;;;;24.33;45.84;101429.19;4991921;28;20042;-73
2023/07/17 01:40:56;;;;;;;3.60;1.95;;;;;;;24.33;45.89;101431.03;4973075;28;20038;-73
2023/07/17 01:43:22;;;;;;;4.38;1.90;;;;;;;24.32;45.91;101432.88;4973612;28;20049;-72
2023/07/17 01:45:48;;;;;;;3.50;2.08;;;;;;;24.31;45.87;101435.72;4975667;28;20680;-73
2023/07/17 01:48:14;;;;;;;3.17;1.88;;;;;;;24.27;46.13;101426.47;4973876;28;20035;-73
2023/07/17 01:50:46;;;;;;;3.15;2.35;;;;;;;24.32;45.86;101440.84;4973941;28;20055;-72
2023/07/17 01:53:13;;;;;;;3.38;2.08;;;;;;;24.31;46.15;101443.72;4967867;28;20046;-72
2023/07/17 01:55:38;;;;;;;3.78;1.83;;;;;;;24.30;46.07;101434.91;4966807;28;20061;-73
2023/07/17 01:58:04;;;;;;;3.13;2.33;;;;;;;24.29;46.20;101440.41;4970549;28;20520;-72
2023/07/17 02:00:29;;;;;;;4.13;1.77;;;;;;;24.27;46.22;101427.28;4973001;28;20045;-73
2023/07/17 02:02:55;;;;;;;4.80;2.22;;;;;;;24.26;46.12;101435.47;4972291;28;21074;-72
2023/07/17 02:05:21;;;;;;;3.50;1.80;;;;;;;24.29;46.21;101430.59;4970864;28;20070;-73
2023/07/17 02:07:46;;;;;;;2.67;1.88;;;;;;;24.22;46.28;101426.19;4971614;28;20054;-73
2023/07/17 02:10:12;;;;;;;3.75;1.55;;;;;;;24.22;46.34;101442.16;4972677;28;20062;-73
2023/07/17 02:12:38;;;;;;;3.75;2.03;;;;;;;24.22;46.08;101431.53;4971632;28;20054;-73
2023/07/17 02:15:05;;;;;;;2.72;1.95;;;;;;;24.20;46.22;101436.22;4971552;28;20043;-73
2023/07/17 02:17:33;;;;;;;;;;;;;;;24.21;46.37;101438.69;4971806;28;21635;-73
2023/07/17 02:19:59;;;;;;;3.70;2.35;;;;;;;24.21;46.38;101441.34;4986938;28;19926;-73
2023/07/17 02:22:24;;;;;;;4.85;2.20;;;;;;;24.22;46.12;101439.50;4970716;28;20042;-72
2023/07/17 02:24:50;;;;;;;3.20;1.67;;;;;;;24.18;46.20;101447.06;4972682;28;20064;-72
2023/07/17 02:27:16;;;;;;;2.72;1.65;;;;;;;24.21;46.26;101451.16;4971524;28;20061;-72
2023/07/17 02:29:42;;;;;;;2.85;1.40;;;;;;;24.18;46.30;101446.22;4971014;28;20419;-73
2023/07/17 02:32:07;;;;;;;4.35;1.85;;;;;;;24.17;46.29;101448.06;4972509;28;20043;-72
2023/07/17 02:34:33;;;;;;;5.03;1.95;;;;;;;24.18;46.29;101440.91;4971124;28;20042;-72
2023/07/17 02:36:58;;;;;;;2.63;1.83;;;;;;;24.19;46.20;101454.03;4970789;28;20046;-73
2023/07/17 02:39:24;;;;;;;2.83;1.73;;;;;;;24.18;46.04;101447.06;4986168;28;20324;-73
2023/07/17 02:41:49;;;;;;;1.85;1.60;;;;;;;24.18;46.22;101457.69;4968265;28;20042;-73
2023/07/17 02:44:15;;;;;;;3.22;2.10;;;;;;;24.06;46.44;101446.78;4972304;28;20533;-72
2023/07/17 02:46:41;;;;;;;1.70;1.45;;;;;;;24.09;46.46;101465.00;4968175;28;20046;-73
2023/07/17 02:49:09;;;;;;;2.55;1.55;;;;;;;24.12;46.33;101455.81;4973949;28;20030;-72
2023/07/17 02:51:34;;;;;;;2.78;1.90;;;;;;;24.09;46.29;101462.34;4972629;28;20485;-73
2023/07/17 02:54:00;;;;;;;2.35;1.52;;;;;;;24.11;46.28;101457.66;4975434;28;20054;-72
2023/07/17 02:56:25;;;;;;;2.75;1.70;;;;;;;24.10;46.26;101463.19;4977249;28;20042;-72
2023/07/17 02:58:53;;;;;;;3.40;1.67;;;;;;;24.10;46.44;101465.84;4977552;28;20039;-72
2023/07/17 03:01:20;;;;;;;2.22;1.50;;;;;;;24.08;46.31;101471.34;4973745;28;20046;-72
2023/07/17 03:03:46;;;;;;;2.65;1.55;;;;;;;24.06;46.32;101468.06;4970495;28;20137;-72
2023/07/17 03:06:12;;;;;;;2.67;1.55;;;;;;;24.05;46.48;101466.38;4971620;28;20037;-72
2023/07/17 03:08:38;;;;;;;3.88;1.80;;;;;;;24.06;46.40;101470.72;4977190;28;20035;-72
2023/07/17 03:11:03;;;;;;;2.72;1.80;;;;;;;24.07;46.36;101463.56;4971776;28;20110;-72
2023/07/17 03:13:29;;;;;;;2.53;1.73;;;;;;;24.05;46.40;101473.56;4971848;28;20082;-72
2023/07/17 03:16:01;;;;;;;2.03;1.83;;;;;;;24.06;46.64;101473.38;4974183;28;20397;-72
2023/07/17 03:18:26;;;;;;;3.22;1.60;;;;;;;24.05;46.38;101468.22;4972007;28;20031;-72
2023/07/17 03:20:54;;;;;;;2.67;1.63;;;;;;;24.03;46.20;101468.44;4985775;28;20039;-71
2023/07/17 03:23:19;;;;;;;2.17;1.60;;;;;;;24.04;46.34;101469.25;4968635;28;20153;-72
2023/07/17 03:25:45;;;;;;;4.13;2.00;;;;;;;24.04;46.51;101463.94;4972104;28;20043;-71
2023/07/17 03:28:11;;;;;;;3.13;1.60;;;;;;;24.02;46.39;101471.28;4969866;28;20046;-72
2023/07/17 03:30:36;;;;;;;4.07;2.47;;;;;;;23.97;46.44;101463.88;4971147;28;20054;-72
2023/07/17 03:33:04;;;;;;;3.30;1.90;;;;;;;23.99;46.22;101469.84;4974580;28;20173;-72
2023/07/17 03:35:29;;;;;;;4.82;1.70;;;;;;;23.99;46.42;101469.00;4970285;28;21158;-72
2023/07/17 03:37:55;;;;;;;1.70;1.50;;;;;;;23.99;46.33;101467.16;4972086;28;20047;-71
2023/07/17 03:40:21;;;;;;;2.08;1.67;;;;;;;24.01;46.39;101480.28;4967475;28;20129;-72
2023/07/17 03:42:46;;;;;;;3.35;1.88;;;;;;;23.97;46.41;101481.69;4969616;28;20042;-72
2023/07/17 03:45:13;;;;;;;2.30;1.88;;;;;;;23.98;46.25;101478.81;4972255;28;20030;-72
2023/07/17 03:47:39;;;;;;;3.85;1.75;;;;;;;23.98;46.59;101478.00;4973426;28;20078;-72
2023/07/17 03:50:05;;;;;;;3.65;1.55;;;;;;;23.96;46.57;101483.53;4969000;28;20055;-72
2023/07/17 03:52:31;;;;;;;4.47;1.80;;;;;;;23.98;46.58;101476.16;4966781;28;20046;-73
2023/07/17 03:54:56;;;;;;;1.60;1.50;;;;;;;23.98;46.42;101472.69;4969638;28;20031;-72
2023/07/17 03:57:22;;;;;;;2.72;1.60;;;;;;;23.99;46.34;101477.00;4986529;28;20046;-72
2023/07/17 03:59:53;;;;;;;3.75;2.00;;;;;;;23.95;46.52;101465.09;4970775;28;20049;-72
2023/07/17 04:02:37;;;;;;;2.00;1.63;;;;;;;23.94;46.62;101468.78;4970261;28;21445;-71
2023/07/17 04:05:03;;;;;;;3.30;1.80;;;;;;;23.93;46.55;101469.78;4966743;28;20042;-71
2023/07/17 04:07:28;;;;;;;3.92;1.83;;;;;;;23.93;46.44;101477.75;4969916;28;20118;-72
2023/07/17 04:09:54;;;;;;;2.58;1.75;;;;;;;23.92;46.60;101476.94;4969214;28;20031;-72
2023/07/17 04:12:19;;;;;;;3.40;1.90;;;;;;;23.91;46.52;101480.63;4968356;28;20039;-72
2023/07/17 04:14:45;;;;;;;4.20;1.98;;;;;;;23.83;46.52;101461.28;4986047;28;20073;-71
2023/07/17 04:17:11;;;;;;;1.77;1.35;;;;;;;23.91;46.57;101472.63;4966696;28;20043;-72
2023/07/17 04:19:36;;;;;;;1.80;1.50;;;;;;;23.89;46.58;101487.97;4966693;28;20444;-72
2023/07/17 04:22:02;;;;;;;4.32;1.85;;;;;;;23.92;46.53;101484.94;4968753;28;20255;-72
2023/07/17 04:24:28;;;;;;;2.95;1.88;;;;;;;23.90;46.58;101486.97;4971193;28;20046;-71
2023/07/17 04:26:54;;;;;;;2.72;1.55;;;;;;;23.92;46.50;101484.94;4968305;28;20122;-71
2023/07/17 04:29:24;;;;;;;3.70;1.70;;;;;;;23.93;46.47;101480.44;4952975;28;20047;-72
2023/07/17 04:31:55;;;;;;;2.70;1.30;;;;;;;23.92;46.53;101489.41;4969895;28;20569;-72
2023/07/17 04:34:20;;;;;;;3.78;2.08;;;;;;;23.90;46.62;101486.13;4973490;28;20035;-72
2023/07/17 04:36:47;;;;;;;3.58;1.60;;;;;;;23.88;46.77;101483.66;4950555;28;20102;-72
2023/07/17 04:39:13;;;;;;;2.85;1.40;;;;;;;23.90;46.49;101483.47;4968906;28;20057;-72
2023/07/17 04:41:39;;;;;;;3.00;1.60;;;;;;;23.91;46.52;101493.91;4975274;28;20039;-72
2023/07/17 04:44:05;;;;;;;3.35;1.63;;;;;;;23.88;46.62;101482.81;4975988;28;20038;-73
2023/07/17 04:46:31;;;;;;;3.42;1.70;;;;;;;23.87;46.51;101489.16;4971902;28;20054;-72
2023/07/17 04:48:57;;;;;;;2.20;1.60;;;;;;;23.87;46.83;101492.63;4973045;28;21739;-72
2023/07/17 04:51:22;;;;;;;2.88;1.70;;;;;;;23.88;46.49;101493.44;4973293;28;20687;-72
2023/07/17 04:53:48;;;;;;;3.03;1.80;;;;;;;23.82;46.44;101500.38;4974165;28;20072;-72
2023/07/17 04:56:14;;;;;;;3.10;1.90;;;;;;;23.88;46.51;101496.13;4975411;28;20042;-73
2023/07/17 04:58:40;;;;;;;3.22;1.80;;;;;;;23.87;46.62;101494.47;4972583;28;20031;-72
2023/07/17 05:01:07;;;;;;;3.92;2.35;;;;;;;23.85;46.47;101493.84;4970654;28;20046;-72
2023/07/17 05:03:33;;;;;;;3.55;2.00;;;;;;;23.84;46.51;101485.03;4973012;28;20042;-73
2023/07/17 05:06:00;;;;;;;2.10;1.40;;;;;;;23.85;46.47;101492.00;4971797;28;20050;-73
2023/07/17 05:08:26;;;;;;;1.95;1.50;;;;;;;23.85;46.51;101493.84;4971381;28;20053;-73
2023/07/17 05:10:56;;;;;;;3.05;1.88;;;;;;;23.83;46.55;101491.38;4973101;28;20042;-73
2023/07/17 05:13:25;;;;;;;2.20;1.65;;;;;;;23.84;46.37;101493.00;4975950;28;20093;-73
2023/07/17 05:15:53;;;;;;;3.60;1.90;;;;;;;23.84;46.47;101489.53;4957747;28;20035;-74
2023/07/17 05:18:19;;;;;;;3.30;2.05;;;;;;;23.84;46.52;101489.53;4968688;28;20122;-73
2023/07/17 05:20:47;;;;;;;4.15;1.98;;;;;;;23.84;46.53;101489.53;4973951;28;20101;-73
2023/07/17 05:23:13;;;;;;;2.40;1.65;;;;;;;23.85;46.27;101505.31;4974617;28;20043;-73
2023/07/17 05:25:39;;;;;;;3.35;1.90;;;;;;;23.85;46.28;101493.84;4972075;28;20046;-73
2023/07/17 05:28:05;;;;;;;3.50;1.80;;;;;;;23.84;46.43;101494.84;4983779;28;20023;-73
2023/07/17 05:30:34;;;;;;;2.58;1.60;;;;;;;23.82;46.53;101500.38;4972275;28;20532;-72
2023/07/17 05:33:01;;;;;;;4.32;2.00;;;;;;;23.83;46.53;101499.34;4972888;28;20034;-72
2023/07/17 05:35:27;;;;;;;3.30;1.90;;;;;;;23.86;46.37;101498.97;4970262;28;20062;-72
2023/07/17 05:37:55;;;;;;;3.50;1.85;;;;;;;23.88;46.29;101507.59;4973153;28;20066;-73
2023/07/17 05:40:21;;;;;;;2.73;1.90;;;;;;;23.83;46.38;101507.31;4973905;28;20046;-71
2023/07/17 05:42:47;;;;;;;3.25;1.80;;;;;;;23.86;46.35;101500.81;4971368;28;20045;-73
2023/07/17 05:45:13;;;;;;;2.75;1.70;;;;;;;23.86;46.46;101511.44;4967468;28;20034;-73
2023/07/17 05:47:41;;;;;;;3.05;1.70;;;;;;;23.87;46.21;101511.25;4974846;28;20038;-73
2023/07/17 05:50:07;;;;;;;2.42;1.63;;;;;;;23.85;46.31;101507.13;4988192;28;20058;-73
2023/07/17 05:52:33;;;;;;;3.00;1.38;;;;;;;23.87;46.23;101519.22;4970236;28;20047;-73
2023/07/17 05:54:59;;;;;;;2.85;1.63;;;;;;;23.88;46.14;101525.38;4973112;28;20523;-73
2023/07/17 05:57:25;;;;;;;2.25;1.60;;;;;;;23.88;46.33;101518.25;4972561;28;20053;-73
2023/07/17 05:59:51;;;;;;;3.63;1.60;;;;;;;23.92;46.09;101518.69;4974334;28;20045;-73
2023/07/17 06:02:16;;;;;;;3.22;1.58;;;;;;;23.91;46.03;101527.69;4971986;28;20042;-73
2023/07/17 06:04:42;;;;;;;2.80;1.67;;;;;;;23.91;46.10;101525.03;4976669;28;20042;-73
2023/07/17 06:07:08;;;;;;;3.88;1.80;;;;;;;23.91;46.18;101515.19;4974412;28;20038;-73
2023/07/17 06:09:35;;;;;;;3.50;1.95;;;;;;;23.91;46.09;101533.00;4975205;28;20046;-72
2023/07/17 06:12:01;;;;;;;2.38;1.52;;;;;;;23.92;46.06;101524.00;4973059;28;20065;-73
2023/07/17 06:14:26;;;;;;;2.88;1.50;;;;;;;23.91;46.02;101528.50;4972774;28;20548;-73
2023/07/17 06:16:52;;;;;;;1.95;1.55;;;;;;;23.94;46.00;101532.63;4971518;28;20041;-72
2023/07/17 06:19:18;;;;;;;3.50;1.90;;;;;;;23.96;45.98;101535.91;4967683;28;20066;-72
2023/07/17 06:21:44;;;;;;;2.47;1.73;;;;;;;23.98;45.97;101537.34;4970031;28;20043;-73
2023/07/17 06:24:10;;;;;;;3.80;2.05;;;;;;;24.01;45.98;101541.47;4975801;28;20053;-73
2023/07/17 06:26:36;;;;;;;4.53;1.58;;;;;;;24.01;45.91;101541.47;4972953;28;20493;-66
2023/07/17 06:29:03;;;;;;;2.90;1.70;;;;;;;24.01;45.98;101541.47;4972912;28;20062;-73
2023/07/17 06:31:29;;;;;;;2.35;1.65;;;;;;;24.01;46.03;101539.63;4973941;28;20058;-73
2023/07/17 06:33:55;;;;;;;2.17;1.30;;;;;;;24.04;45.93;101538.41;4973929;28;20046;-73
2023/07/17 06:36:20;;;;;;;2.60;1.85;;;;;;;24.04;45.92;101549.06;4972961;28;20046;-73
2023/07/17 06:38:46;;;;;;;7.40;2.15;;;;;;;24.04;45.98;101541.91;4971297;28;20045;-73
2023/07/17 06:41:11;;;;;;;4.20;1.90;;;;;;;24.05;45.95;101540.88;4971572;28;20050;-74
2023/07/17 06:43:37;;;;;;;5.18;2.15;;;;;;;24.07;45.88;101546.88;4970795;28;20053;-73
2023/07/17 06:46:04;;;;;;;4.25;2.00;;;;;;;24.07;46.04;101548.72;4986872;28;20037;-74
2023/07/17 06:48:30;;;;;;;3.53;2.03;;;;;;;24.08;45.87;101561.00;4974345;28;20047;-73
2023/07/17 06:50:55;;;;;;;3.28;1.90;;;;;;;24.09;45.89;101552.81;4971809;28;20053;-73
2023/07/17 06:53:21;;;;;;;2.70;2.00;;;;;;;24.09;45.90;101552.81;4972576;28;20038;-73
2023/07/17 06:55:54;;;;;;;4.30;2.03;;;;;;;24.14;45.83;101556.75;4970106;28;20039;-73
2023/07/17 06:58:19;;;;;;;5.88;2.70;;;;;;;24.16;45.87;101554.72;4967635;28;20078;-73
2023/07/17 07:00:45;;;;;;;3.55;2.00;;;;;;;24.19;45.79;101554.31;4969393;28;20042;-73
2023/07/17 07:03:10;;;;;;;4.13;2.08;;;;;;;24.23;45.57;101563.56;4969078;28;20435;-73
2023/07/17 07:05:36;;;;;;;3.72;2.22;;;;;;;24.24;45.53;101573.22;4971978;28;20042;-74
2023/07/17 07:08:03;;;;;;;5.82;2.08;;;;;;;24.24;45.44;101558.06;4982860;28;20039;-73
2023/07/17 07:10:28;;;;;;;6.50;2.47;;;;;;;24.25;45.51;101573.03;4966071;28;20106;-74
2023/07/17 07:12:54;;;;;;;6.13;2.63;;;;;;;24.28;45.31;101588.59;4969524;28;20118;-73
2023/07/17 07:15:20;;;;;;;4.35;2.28;;;;;;;24.30;45.44;101583.94;4971347;28;20551;-73
2023/07/17 07:17:45;;;;;;;8.10;2.72;;;;;;;24.29;45.64;101584.16;4968617;28;20043;-73
2023/07/17 07:20:11;;;;;;;6.78;2.53;;;;;;;24.29;45.43;101581.47;4970669;28;20109;-73
2023/07/17 07:22:37;;;;;;;3.45;2.13;;;;;;;24.28;45.31;101585.13;4969958;28;20043;-73
2023/07/17 07:25:02;;;;;;;4.15;2.28;;;;;;;24.27;45.54;101586.97;4968717;28;20046;-73
2023/07/17 07:27:30;;;;;;;7.18;3.03;;;;;;;24.29;45.52;101587.63;4969207;28;20077;-72
2023/07/17 07:29:56;;;;;;;5.07;2.58;;;;;;;24.30;45.48;101593.78;4968244;28;20980;-72
2023/07/17 07:32:22;;;;;;;4.32;2.33;;;;;;;24.33;45.34;101591.53;4971988;28;20122;-72
2023/07/17 07:34:47;;;;;;;4.55;2.33;;;;;;;24.32;45.44;101600.53;4970307;28;20043;-72
2023/07/17 07:37:13;;;;;;;4.65;2.70;;;;;;;24.32;45.54;101597.06;4968755;28;20050;-73
2023/07/17 07:39:38;;;;;;;5.03;2.40;;;;;;;24.34;45.35;101597.69;4969790;28;20055;-72
2023/07/17 07:42:04;;;;;;;5.72;2.42;;;;;;;24.37;45.42;101602.63;4966643;28;20063;-73
2023/07/17 07:44:29;;;;;;;10.00;2.75;;;;;;;24.33;45.34;101598.72;4972906;28;20497;-66
2023/07/17 07:46:55;;;;;;;7.63;3.05;;;;;;;24.34;45.06;101595.03;4968781;28;20038;-67
2023/07/17 07:49:20;;;;;;;6.80;3.00;;;;;;;24.16;45.13;101598.09;4967820;28;20050;-66
2023/07/17 07:51:46;;;;;;;7.47;3.05;;;;;;;24.06;45.15;101586.97;4968128;28;20034;-67
2023/07/17 07:54:11;;;;;;;4.35;2.85;;;;;;;23.94;45.48;101588.47;4965860;28;20049;-69
2023/07/17 07:56:37;;;;;;;7.75;3.22;;;;;;;23.87;45.02;101584.91;4967545;28;20077;-67
2023/07/17 07:59:03;;;;;;;6.22;3.03;;;;;;;23.86;45.26;101593.88;4970700;28;20174;-65
2023/07/17 08:01:28;;;;;;;7.40;3.08;;;;;;;23.80;45.36;101606.94;4965178;28;20433;-67
2023/07/17 08:03:54;;;;;;;7.65;3.30;;;;;;;23.81;45.71;101613.09;4970482;28;20046;-66
2023/07/17 08:06:19;;;;;;;7.13;3.22;;;;;;;23.80;45.66;101628.22;4967789;28;20409;-66
2023/07/17 08:08:45;;;;;;;4.95;2.63;;;;;;;23.77;46.27;101619.78;4970301;28;20047;-67
2023/07/17 08:11:10;;;;;;;8.32;2.83;;;;;;;23.66;47.08;101633.56;4967905;28;20042;-66
2023/07/17 08:13:36;;;;;;;7.93;3.28;;;;;;;23.72;47.11;101641.63;4967670;28;20552;-66
2023/07/17 08:16:01;;;;;;;7.28;3.25;;;;;;;23.60;47.70;101642.28;4970496;28;20038;-66
2023/07/17 08:18:27;;;;;;;6.18;2.95;;;;;;;23.67;47.94;101644.00;4965320;28;20046;-67
2023/07/17 08:20:53;;;;;;;7.32;3.55;;;;;;;23.67;47.61;101635.19;4969489;28;20035;-67
2023/07/17 08:23:26;;;;;;;6.88;3.35;;;;;;;23.64;48.33;101639.06;4971247;28;20101;-67
2023/07/17 08:25:51;;;;;;;8.82;3.25;;;;;;;23.60;48.33;101639.63;4970526;28;20122;-67
2023/07/17 08:28:17;;;;;;;11.00;3.40;;;;;;;23.71;48.75;101640.00;4969264;28;20058;-66
2023/07/17 08:30:43;;;;;;;6.72;3.20;;;;;;;23.71;48.79;101642.66;4968883;28;20038;-67
2023/07/17 08:33:09;;;;;;;5.63;3.00;;;;;;;23.75;48.34;101638.59;4975653;28;20166;-66
2023/07/17 08:35:34;;;;;;;9.40;3.55;;;;;;;23.77;49.42;101644.56;4969233;28;20058;-67
2023/07/17 08:38:00;;;;;;;8.60;3.67;;;;;;;23.72;49.60;101635.50;4975049;28;20062;-66
2023/07/17 08:40:26;;;;;;;5.50;3.17;;;;;;;23.84;49.21;101647.28;4972276;28;20043;-66
2023/07/17 08:42:52;;;;;;;8.43;3.20;;;;;;;23.92;48.18;101647.19;4969456;28;20480;-66
2023/07/17 08:45:22;;;;;;;7.00;3.83;;;;;;;23.91;48.91;101650.03;4966141;28;20062;-66
2023/07/17 08:47:51;;;;;;;6.65;3.50;;;;;;;23.86;48.72;101653.22;4967940;28;20121;-67
2023/07/17 08:50:18;;;;;;;6.75;3.28;;;;;;;23.84;49.08;101657.09;4969610;28;20053;-67
2023/07/17 08:52:46;;;;;;;6.35;3.30;;;;;;;23.82;49.20;101665.25;4966283;28;20097;-66
2023/07/17 08:55:11;;;;;;;6.32;2.90;;;;;;;23.75;48.91;101659.06;4963313;28;20035;-67
2023/07/17 08:57:38;;;;;;;7.18;2.90;;;;;;;23.76;48.42;101653.53;4967346;28;20037;-66
2023/07/17 09:00:05;;;;;;;3.97;2.80;;;;;;;23.73;48.41;101651.25;4970876;28;20106;-68
2023/07/17 09:02:35;;;;;;;10.43;2.95;;;;;;;23.91;48.18;101656.19;4937623;28;20054;-68
2023/07/17 09:05:03;;;;;;;6.90;3.28;;;;;;;23.98;47.62;101672.22;4931465;28;20053;-63
2023/07/17 09:07:29;;;;;;;6.90;3.13;;;;;;;24.10;47.22;101668.06;4964883;28;20039;-63
2023/07/17 09:10:14;;;;;;;6.97;3.13;;;;;;;24.19;47.70;101658.09;4962011;28;20618;-63
2023/07/17 09:12:43;;;;;;;5.57;2.50;;;;;;;24.23;47.01;101678.00;4966693;28;20097;-61
2023/07/17 09:15:13;;;;;;;9.57;2.97;;;;;;;24.19;46.33;101674.06;4964863;28;20033;-62
2023/07/17 09:17:39;;;;;;;7.32;2.50;;;;;;;23.99;46.29;101672.03;4927318;28;20207;-63
2023/07/17 09:20:17;;;;;;;6.03;2.63;;;;;;;24.08;46.39;101683.38;4950543;28;20109;-64
2023/07/17 09:22:43;;;;;;;5.75;2.40;;;;;;;24.18;45.91;101683.91;4954747;28;20054;-69
2023/07/17 09:25:10;;;;;;;4.70;2.70;;;;;;;24.30;45.49;101671.78;4983710;28;20034;-69
2023/07/17 09:27:51;;;;;;;5.60;2.40;;;;;;;24.44;45.91;101672.75;4925410;28;20068;-62
2023/07/17 09:30:19;;;;;;;5.00;2.53;;;;;;;24.40;45.23;101676.78;4965078;28;20504;-64
2023/07/17 09:32:46;;;;;;;7.00;2.60;;;;;;;24.41;45.48;101665.13;4930679;28;20031;-68
2023/07/17 09:35:12;;;;;;;7.00;2.45;;;;;;;24.51;44.98;101676.28;4968173;28;20666;-68
2023/07/17 09:37:40;;;;;;;5.35;2.88;;;;;;;24.49;44.35;101658.84;4928790;28;20609;-62
2023/07/17 09:40:11;;;;;;;3.78;2.40;;;;;;;24.62;43.87;101678.44;4968804;28;20161;-63
2023/07/17 09:42:38;;;;;;;7.85;2.60;;;;;;;24.58;43.72;101674.50;4932707;28;20050;-67
2023/07/17 09:45:04;;;;;;;6.53;2.85;;;;;;;24.65;43.76;101686.06;4985693;28;20046;-66
2023/07/17 09:47:31;;;;;;;6.70;2.97;;;;;;;24.55;43.85;101679.38;4958008;28;20590;-67
2023/07/17 09:49:58;;;;;;;4.57;2.42;;;;;;;24.55;43.58;101698.03;4968581;28;20061;-67
2023/07/17 09:52:25;;;;;;;4.32;2.83;;;;;;;24.54;43.08;101689.22;4932378;28;20419;-66
2023/07/17 09:54:51;;;;;;;5.57;2.35;;;;;;;24.63;43.43;101695.25;4970072;28;20023;-66
2023/07/17 09:57:29;;;;;;;5.10;2.50;;;;;;;24.69;43.39;101697.97;4932802;28;20034;-66
2023/07/17 10:00:13;;;;;;;4.15;2.47;;;;;;;24.68;43.24;101704.31;4968090;28;20038;-66
2023/07/17 10:02:41;;;;;;;5.63;2.70;;;;;;;24.70;43.03;101706.78;4929875;28;20042;-67
2023/07/17 10:05:07;;;;;;;6.67;2.63;;;;;;;24.69;43.00;101710.47;4965851;28;20039;-67
2023/07/17 10:07:37;;;;;;;4.78;2.30;;;;;;;24.75;42.47;101719.53;4935058;28;20034;-66
2023/07/17 10:10:04;;;;;;;7.68;2.35;;;;;;;24.70;42.72;101712.94;4959610;28;20031;-63
2023/07/17 10:12:31;;;;;;;5.20;3.00;;;;;;;24.74;42.56;101709.88;4972113;28;20493;-65
2023/07/17 10:15:03;;;;;;;5.55;2.40;;;;;;;24.67;41.75;101710.66;4939658;28;20053;-68
2023/07/17 10:17:30;;;;;;;4.90;2.40;;;;;;;24.77;42.77;101704.16;4978763;28;20039;-63
2023/07/17 10:20:00;;;;;;;5.30;2.92;;;;;;;24.81;42.74;101705.47;4930675;28;20826;-66
2023/07/17 10:22:33;;;;;;;5.20;2.47;;;;;;;24.83;42.46;101706.09;4968019;28;20058;-68
2023/07/17 10:25:10;;;;;;;4.70;2.45;;;;;;;24.84;41.94;101702.41;4942285;28;20047;-69
2023/07/17 10:27:40;;;;;;;7.38;3.03;;;;;;;24.86;42.13;101706.50;4955091;28;20045;-63
2023/07/17 10:30:31;;;;;;;;;;;;;;;24.87;41.96;101710.81;4972024;28;20103;-61
2023/07/17 10:33:19;;;;;;;5.07;1.95;;;;;;;24.91;41.39;101706.75;4932340;28;20316;-67
2023/07/17 10:35:56;;;;;;;3.58;2.05;;;;;;;24.95;41.46;101716.00;4964307;28;20079;-66
2023/07/17 10:38:29;;;;;;;4.70;2.50;;;;;;;24.90;41.29;101693.63;4927313;28;20035;-62
2023/07/17 10:41:25;;;;;;;3.95;2.20;;;;;;;24.84;41.27;101721.88;4980777;28;20039;-62
2023/07/17 10:43:54;;;;;;;5.43;2.25;;;;;;;24.90;41.26;101714.94;4901463;28;20082;-61
2023/07/17 10:46:26;;;;;;;4.57;2.53;;;;;;;24.87;41.61;101716.16;4960521;28;20047;-62
2023/07/17 10:48:52;;;;;;;3.33;2.10;;;;;;;24.90;41.22;101709.63;4923783;28;20034;-61
2023/07/17 10:51:17;;;;;;;3.72;2.15;;;;;;;24.82;41.06;101709.75;4967013;28;20078;-62
2023/07/17 10:53:43;;;;;;;3.58;2.22;;;;;;;24.90;40.70;101710.44;4955902;28;20655;-63
2023/07/17 10:56:09;;;;;;;3.28;2.22;;;;;;;24.93;40.95;101714.56;4965583;28;20058;-61
2023/07/17 10:58:34;;;;;;;5.07;2.30;;;;;;;24.98;41.32;101715.66;4927480;28;21605;-64
2023/07/17 11:01:08;;;;;;;9.40;2.35;;;;;;;24.92;41.18;101715.56;4966763;28;20047;-65
2023/07/17 11:03:36;;;;;;;3.03;2.13;;;;;;;24.66;41.10;101717.00;4926657;28;20035;-63
2023/07/17 11:06:02;;;;;;;4.45;2.20;;;;;;;24.61;41.38;101719.41;4967319;28;20070;-64
2023/07/17 11:08:27;;;;;;;3.88;2.00;;;;;;;24.61;40.89;101722.06;4935741;28;20039;-69
2023/07/17 11:10:53;;;;;;;4.55;1.88;;;;;;;24.56;41.02;101718.31;4971292;28;20038;-69
2023/07/17 11:13:18;;;;;;;3.58;2.58;;;;;;;24.56;41.19;101727.13;4930700;28;20666;-66
2023/07/17 11:15:44;;;;;;;4.97;2.15;;;;;;;24.49;40.99;101731.56;4986406;28;20038;-66
2023/07/17 11:18:10;;;;;;;4.70;2.20;;;;;;;24.47;41.36;101722.94;4960107;28;20149;-66
2023/07/17 11:20:35;;;;;;;5.57;2.17;;;;;;;24.40;41.24;101728.19;4969933;28;20039;-67
2023/07/17 11:23:03;;;;;;;5.18;2.30;;;;;;;24.36;40.92;101712.78;4930018;28;20280;-65
2023/07/17 11:25:30;;;;;;;6.38;3.10;;;;;;;24.38;40.76;101729.38;4979200;28;20042;-65